METAR stanice u blizini

 

LYBE - Beograd / Surčin, Srbija
Ažurirano: 25/06/2022 18:30
Thunderstorm, Delimično oblačno
Thunderstorm, Delimično oblačno
 Pravac vetra ISI
Vetar: ISI 11 km/h
Temperatura: 20°C
Tačka rose: 19°C
Vlažnost: 94%
Pritisak: 1013 hPa
Pregled: Thunderstorm
Oblaci: Partly Cloudy
Vidljivost: 10 km
Cloud details: Few Clouds 914 m
Partly Cloudy 1219 m
2022/06/25 16:30 LYBE 251630Z 06006KT 020V110 9999 TS FEW030CB SCT040 20/19 Q1013 RESHRA WS RWY12 TEMPO 27020G30KT 3000 TSRA
LYBT - Beograd / Batajnica, Srbija
Ažurirano: 25/06/2022 18:30
Light thunderstorm, Padavine, Delimično oblačno
Light thunderstorm, Padavine, Delimično oblačno
 Pravac vetra I
Vetar: I 11 km/h
Temperatura: 21°C
Tačka rose: 21°C
Vlažnost: 100%
Pritisak: 1013 hPa
Pregled: Light thunderstorm, Padavine
Oblaci: Partly Cloudy
Vidljivost: 10 km
Cloud details: Partly Cloudy 1006 m
2022/06/25 16:30 LYBT 251630Z 09006KT 9999 -TSRA SCT033CB 21/21 Q1013 RESHRA NOSIG
LYVR - Vršac, Srbija
Ažurirano: 25/06/2022 18:30
Mostly Cloudy
Mostly Cloudy
 Pravac vetra JI
Vetar: JI 11 km/h
Temperatura: 20°C
Tačka rose: 19°C
Vlažnost: 94%
Pritisak: 1013 hPa
Oblaci: Mostly Cloudy
Vidljivost: 10 km
Cloud details: Few Clouds 1036 m
Mostly Cloudy 3048 m
2022/06/25 16:30 LYVR 251630Z AUTO 14006KT 9999 FEW034/// BKN100/// 20/19 Q1013 RESHRA
 
LYKV - Lađevci, Srbija
Ažurirano: 25/06/2022 18:30
Partly Cloudy
Partly Cloudy
 Pravac vetra J
Vetar: J 9 km/h
Temperatura: 22°C
Tačka rose: 18°C
Vlažnost: 78%
Pritisak: 1012 hPa
Oblaci: Partly Cloudy
Vidljivost: 10 km
Cloud details: Partly Cloudy 1219 m
2022/06/25 16:30 LYKV 251630Z 17005KT 130V210 9999 SCT040 22/18 Q1012 NOSIG
LYNI - Niš, Srbija
Ažurirano: 25/06/2022 18:30
Thunderstorm rain, Delimično oblačno
Thunderstorm rain, Delimično oblačno
 Pravac vetra varies
Vetar: varies 6 km/h
Temperatura: 20°C
Tačka rose: 18°C
Vlažnost: 88%
Pritisak: 1014 hPa
Pregled: Thunderstorm Rain
Oblaci: Partly Cloudy
Vidljivost: 10 km
Cloud details: Few Clouds 1006 m
Partly Cloudy 1372 m
2022/06/25 16:30 LYNI 251630Z VRB03KT 9999 TSRA FEW033CB SCT045 20/18 Q1014 NOSIG
BKPR - Priština, Srbija
Ažurirano: 25/06/2022 18:30
Mostly Cloudy
Mostly Cloudy
 Pravac vetra S
Vetar: S 30 km/h
Temperatura: 24°C
Tačka rose: 15°C
Vlažnost: 57%
Pritisak: 1014 hPa
Oblaci: Mostly Cloudy
Vidljivost: 10 km
Cloud details: Mostly Cloudy 1829 m
2022/06/25 16:30 BKPR 251630Z 01016KT 9999 BKN060 24/15 Q1014 NOSIG
 
LHPP - Pecs / Pogany, Hungary
Ažurirano: 25/06/2022 18:15
Vedro
Vedro
 Pravac vetra SSZ
Vetar: SSZ 20 km/h
Temperatura: 27°C
Heat Index: 27°C
Tačka rose: 15°C
Vlažnost: 48%
Pritisak: 1013 hPa
Pregled: Vedro
Vidljivost: greater than 10 km
2022/06/25 16:15 LHPP 251615Z AUTO 33011KT 300V010 CAVOK 27/15 Q1013
LHUD - Szeged, Hungary
Ažurirano: 04/07/2019 01:45
NOT Current
Vedro
Vedro
 Pravac vetra S
Vetar: S 7 km/h
Temperatura: 18°C
Tačka rose: 13°C
Vlažnost: 73%
Pritisak: 1019 hPa
Pregled: Vedro
Vidljivost: greater than 10 km
2019/07/03 23:45 LHUD 032345Z 35004KT CAVOK 18/13 Q1019
LRTR - Timisoara, Romania
Ažurirano: 25/06/2022 18:30
Few Clouds
Few Clouds
 Pravac vetra ZSZ
Vetar: ZSZ 9 km/h
Temperatura: 24°C
Tačka rose: 15°C
Vlažnost: 57%
Pritisak: 1011 hPa
Oblaci: Few Clouds
Vidljivost: 10 km
Cloud details: Few Clouds 1463 m
2022/06/25 16:30 LRTR 251630Z 30005KT 9999 FEW048 24/15 Q1011
 
LRCV - Craiova, Romania
Ažurirano: 25/06/2022 18:30
Vedro
Vedro
 Pravac vetra IJI
Vetar: IJI 7 km/h
Temperatura: 30°C
Tačka rose: 9°C
Vlažnost: 27%
Pritisak: 1011 hPa
Pregled: Vedro
Vidljivost: greater than 10 km
2022/06/25 16:30 LRCV 251630Z 11004KT CAVOK 30/09 Q1011
LBSF - Sofia, Bulgaria
Ažurirano: 25/06/2022 18:30
Vedro
Vedro
 Pravac vetra JI
Vetar: JI 9 km/h
Temperatura: 26°C
Tačka rose: 17°C
Vlažnost: 58%
Pritisak: 1013 hPa
Pregled: Vedro
Vidljivost: greater than 10 km
2022/06/25 16:30 LBSF 251630Z 13005KT CAVOK 26/17 Q1013 NOSIG
LWSK - Skoplje, Makedonija
Ažurirano: 25/06/2022 18:30
Few Clouds
Few Clouds
 Pravac vetra JZ
Vetar: JZ 4 km/h
Temperatura: 31°C
Heat Index: 32°C
Tačka rose: 18°C
Vlažnost: 46%
Pritisak: 1010 hPa
Oblaci: Few Clouds
Vidljivost: 10 km
Cloud details: Few Clouds 1219 m
2022/06/25 16:30 LWSK 251630Z 22002KT 9999 FEW040 31/18 Q1010 NOSIG
 
LYPG - Podgorica, Crna Gora
Ažurirano: 25/06/2022 18:30
Partly Cloudy
Partly Cloudy
 Pravac vetra JI
Vetar: JI 17 km/h
Temperatura: 28°C
Heat Index: 30°C
Tačka rose: 21°C
Vlažnost: 66%
Pritisak: 1012 hPa
Oblaci: Partly Cloudy
Vidljivost: 10 km
Cloud details: Partly Cloudy 2743 m
2022/06/25 16:30 LYPG 251630Z 14009KT 9999 SCT090 28/21 Q1012 NOSIG
LQSA - Sarajevo, Bosna i Hercegovina
Ažurirano: 25/06/2022 18:30
Vedro
Vedro
 Pravac vetra ZJZ
Vetar: ZJZ 15 km/h
Temperatura: 30°C
Tačka rose: 9°C
Vlažnost: 27%
Pritisak: 1013 hPa
Pregled: Vedro
Vidljivost: greater than 10 km
2022/06/25 16:30 LQSA 251630Z 25008KT 210V290 CAVOK 30/09 Q1013 NOSIG
LDOS - Osijek, Hrvatksa
Ažurirano: 25/06/2022 18:30
Vedro
Vedro
 Pravac vetra SI
Vetar: SI 11 km/h
Temperatura: 24°C
Tačka rose: 17°C
Vlažnost: 65%
Pritisak: 1012 hPa
Pregled: Vedro
Vidljivost: greater than 10 km
2022/06/25 16:30 LDOS 251630Z 05006KT CAVOK 24/17 Q1012